Time;durP1;ratioP1;P1;durP2;ratioP2;P2;SDS_P1;SDS_P2;PMS_P1;PMS_P2;Temp;Humidity;BMP_temperature;BMP_pressure;BME280_temperature;BME280_humidity;BME280_pressure;Samples;Min_cycle;Max_cycle;Signal;HPM_P1;HPM_P2
2023/09/23 00:00:08;;;;;;;1.30;0.30;;;18.00;65.90;;;;;;6241046;28;20064;-73
2023/09/23 00:03:12;;;;;;;2.08;0.60;;;18.00;66.10;;;;;;6240941;28;20061;-74
2023/09/23 00:06:14;;;;;;;0.50;0.40;;;18.00;66.20;;;;;;6240115;28;20029;-73
2023/09/23 00:09:17;;;;;;;0.95;0.40;;;18.00;66.40;;;;;;6239903;28;20060;-73
2023/09/23 00:12:17;;;;;;;1.23;0.40;;;18.00;66.60;;;;;;6240005;28;20045;-74
2023/09/23 00:15:19;;;;;;;1.02;0.40;;;18.10;66.70;;;;;;6238912;28;20037;-72
2023/09/23 00:18:20;;;;;;;3.30;0.45;;;18.10;66.70;;;;;;6221514;28;20126;-74
2023/09/23 00:21:21;;;;;;;1.02;0.30;;;18.20;66.80;;;;;;6240228;28;20029;-73
2023/09/23 00:24:23;;;;;;;0.75;0.55;;;18.20;66.60;;;;;;6240477;28;20468;-74
2023/09/23 00:27:27;;;;;;;1.40;0.40;;;18.10;66.60;;;;;;6238322;28;20110;-73
2023/09/23 00:30:28;;;;;;;0.88;0.47;;;18.10;66.60;;;;;;6240324;28;20034;-73
2023/09/23 00:33:30;;;;;;;2.75;0.80;;;18.10;66.50;;;;;;6238932;28;20540;-73
2023/09/23 00:36:32;;;;;;;1.15;0.60;;;18.20;66.70;;;;;;6237972;28;20036;-73
2023/09/23 00:39:41;;;;;;;1.48;0.50;;;18.10;66.60;;;;;;6239906;28;20172;-73
2023/09/23 00:42:47;;;;;;;1.35;0.43;;;18.10;66.60;;;;;;6238090;28;20030;-73
2023/09/23 00:45:51;;;;;;;0.82;0.57;;;18.10;66.50;;;;;;6228805;28;20041;-73
2023/09/23 00:48:52;;;;;;;0.32;0.30;;;18.00;66.50;;;;;;6239380;28;20053;-73
2023/09/23 00:51:53;;;;;;;0.43;0.25;;;18.00;66.40;;;;;;6239442;28;20449;-74
2023/09/23 00:54:53;;;;;;;0.30;0.30;;;17.90;66.10;;;;;;6239208;28;20355;-73
2023/09/23 00:58:00;;;;;;;1.38;0.30;;;17.80;65.90;;;;;;6238983;28;20037;-74
2023/09/23 01:01:02;;;;;;;0.45;0.25;;;17.80;66.00;;;;;;6239368;28;20032;-74
2023/09/23 01:04:04;;;;;;;0.13;0.10;;;17.70;65.90;;;;;;6239305;28;20434;-72
2023/09/23 01:07:09;;;;;;;0.30;0.30;;;17.70;65.80;;;;;;6238733;28;20095;-73
2023/09/23 01:10:12;;;;;;;1.10;0.50;;;17.60;65.70;;;;;;6238250;28;20461;-73
2023/09/23 01:13:14;;;;;;;0.20;0.20;;;17.60;65.90;;;;;;6238487;28;20029;-73
2023/09/23 01:16:16;;;;;;;1.10;0.47;;;17.70;65.90;;;;;;6238630;28;20033;-75
2023/09/23 01:19:17;;;;;;;1.13;0.60;;;17.80;65.80;;;;;;6238936;28;20112;-73
2023/09/23 01:22:23;;;;;;;0.88;0.47;;;17.90;65.60;;;;;;6237489;28;20120;-74
2023/09/23 01:25:25;;;;;;;1.55;0.40;;;17.70;65.10;;;;;;6238856;28;20029;-72
2023/09/23 01:28:26;;;;;;;3.80;0.50;;;17.70;65.10;;;;;;6238580;28;20037;-73
2023/09/23 01:31:29;;;;;;;3.67;0.65;;;17.60;64.90;;;;;;6238725;28;20036;-73
2023/09/23 01:34:30;;;;;;;1.10;0.68;;;17.60;65.10;;;;;;6204136;28;20072;-72
2023/09/23 01:37:34;;;;;;;0.75;0.43;;;17.50;65.10;;;;;;6238035;28;20041;-73
2023/09/23 01:40:43;;;;;;;1.05;0.30;;;17.40;65.20;;;;;;6238060;28;20025;-72
2023/09/23 01:43:44;;;;;;;0.55;0.28;;;17.40;65.30;;;;;;6238335;28;20406;-74
2023/09/23 01:46:44;;;;;;;0.82;0.30;;;17.40;65.40;;;;;;6212975;28;20041;-73
2023/09/23 01:49:45;;;;;;;2.55;0.50;;;17.30;65.50;;;;;;6235023;28;20124;-74
2023/09/23 01:52:46;;;;;;;1.83;0.60;;;17.30;65.50;;;;;;6238094;28;20036;-73
2023/09/23 01:55:47;;;;;;;0.17;0.17;;;17.20;65.60;;;;;;6238040;28;20533;-74
2023/09/23 01:58:50;;;;;;;0.73;0.38;;;17.20;65.80;;;;;;6219723;28;20029;-73
2023/09/23 02:01:51;;;;;;;0.65;0.30;;;17.20;65.80;;;;;;6219251;28;20138;-73
2023/09/23 02:04:52;;;;;;;2.88;0.65;;;17.30;65.90;;;;;;6235827;28;20029;-73
2023/09/23 02:07:54;;;;;;;0.82;0.38;;;17.20;65.80;;;;;;6236223;28;20072;-73
2023/09/23 02:10:54;;;;;;;2.83;0.40;;;17.10;65.80;;;;;;6235453;28;20025;-74
2023/09/23 02:13:55;;;;;;;1.08;0.38;;;17.10;65.90;;;;;;6237651;28;20437;-72
2023/09/23 02:16:57;;;;;;;4.65;0.60;;;17.10;66.00;;;;;;6235603;28;20033;-74
2023/09/23 02:19:58;;;;;;;0.70;0.30;;;17.10;66.10;;;;;;6235803;28;20438;-75
2023/09/23 02:22:58;;;;;;;1.48;0.60;;;17.20;66.30;;;;;;6237610;28;20128;-73
2023/09/23 02:26:01;;;;;;;0.60;0.35;;;17.20;66.30;;;;;;6237355;28;20037;-74
2023/09/23 02:29:02;;;;;;;1.25;0.40;;;17.20;66.10;;;;;;6237080;28;20109;-73
2023/09/23 02:32:04;;;;;;;4.25;0.80;;;17.20;65.90;;;;;;6235168;28;20476;-73
2023/09/23 02:35:11;;;;;;;4.53;1.00;;;17.20;65.90;;;;;;6222560;28;20125;-73
2023/09/23 02:38:12;;;;;;;0.73;0.30;;;17.20;66.10;;;;;;6212536;28;20041;-74
2023/09/23 02:41:13;;;;;;;1.10;0.40;;;17.20;66.10;;;;;;6210867;28;20056;-74
2023/09/23 02:44:20;;;;;;;1.45;0.52;;;17.20;66.00;;;;;;6211624;28;20371;-73
2023/09/23 02:47:22;;;;;;;0.40;0.30;;;17.20;66.10;;;;;;6217480;28;20049;-74
2023/09/23 02:50:22;;;;;;;0.32;0.20;;;17.20;66.10;;;;;;6227310;28;20069;-74
2023/09/23 02:53:23;;;;;;;0.93;0.57;;;17.10;66.10;;;;;;6212737;28;20342;-74
2023/09/23 02:56:24;;;;;;;2.03;0.57;;;17.10;66.00;;;;;;6212472;28;20026;-73
2023/09/23 02:59:29;;;;;;;0.88;0.38;;;17.10;66.10;;;;;;6228806;28;20245;-76
2023/09/23 03:02:30;;;;;;;4.45;0.73;;;17.10;66.10;;;;;;6220723;28;20194;-74
2023/09/23 03:05:38;;;;;;;5.35;0.63;;;17.10;66.20;;;;;;6235110;28;20026;-73
2023/09/23 03:08:39;;;;;;;0.30;0.30;;;17.10;66.20;;;;;;6235108;28;20084;-74
2023/09/23 03:11:48;;;;;;;1.38;0.60;;;17.10;66.20;;;;;;6232511;28;20030;-73
2023/09/23 03:14:51;;;;;;;4.38;0.32;;;17.10;66.30;;;;;;6245140;28;20621;-74
2023/09/23 03:17:53;;;;;;;0.73;0.45;;;17.10;66.40;;;;;;6242781;28;20052;-73
2023/09/23 03:20:57;;;;;;;0.40;0.40;;;17.10;66.50;;;;;;6242688;28;20066;-75
2023/09/23 03:23:59;;;;;;;2.70;0.52;;;17.10;66.50;;;;;;6242842;28;20048;-73
2023/09/23 03:27:01;;;;;;;0.80;0.57;;;17.10;66.50;;;;;;6242679;28;20094;-73
2023/09/23 03:30:03;;;;;;;2.42;0.47;;;17.00;66.10;;;;;;6242513;28;20026;-73
2023/09/23 03:33:07;;;;;;;0.80;0.22;;;17.00;66.70;;;;;;6226380;28;20109;-74
2023/09/23 03:36:20;;;;;;;0.77;0.45;;;17.10;66.90;;;;;;6226252;28;20048;-73
2023/09/23 03:39:22;;;;;;;6.55;0.40;;;17.00;67.00;;;;;;6226158;28;20036;-73
2023/09/23 03:42:23;;;;;;;5.07;0.77;;;17.00;67.10;;;;;;6226678;28;20421;-73
2023/09/23 03:45:24;;;;;;;0.70;0.52;;;17.00;67.20;;;;;;6226343;28;20112;-73
2023/09/23 03:48:28;;;;;;;1.48;0.70;;;17.00;67.30;;;;;;6244819;28;20049;-73
2023/09/23 03:51:31;;;;;;;3.80;0.75;;;17.10;67.40;;;;;;6226299;28;20083;-74
2023/09/23 03:54:33;;;;;;;1.25;0.52;;;17.10;67.40;;;;;;6242400;28;20087;-73
2023/09/23 03:57:34;;;;;;;2.67;0.70;;;17.10;67.30;;;;;;6242588;28;20040;-72
2023/09/23 04:00:35;;;;;;;2.67;0.63;;;17.10;67.30;;;;;;6243841;28;20797;-73
2023/09/23 04:03:36;;;;;;;1.95;0.88;;;17.00;67.30;;;;;;6226343;28;20044;-74
2023/09/23 04:06:36;;;;;;;3.70;0.90;;;17.00;67.40;;;;;;6244101;28;20071;-73
2023/09/23 04:09:37;;;;;;;5.75;0.75;;;17.00;67.50;;;;;;6244035;28;20101;-73
2023/09/23 04:12:41;;;;;;;1.10;0.73;;;17.00;67.60;;;;;;6219428;28;20478;-73
2023/09/23 04:15:43;;;;;;;2.70;0.82;;;17.00;67.60;;;;;;6215147;28;20352;-74
2023/09/23 04:18:44;;;;;;;4.63;0.82;;;17.10;67.60;;;;;;6213924;28;20041;-74
2023/09/23 04:21:44;;;;;;;2.88;0.70;;;17.10;67.50;;;;;;6215748;28;20034;-73
2023/09/23 04:24:45;;;;;;;0.63;0.60;;;17.10;67.40;;;;;;6215626;28;20088;-72
2023/09/23 04:27:47;;;;;;;0.52;0.32;;;17.10;67.30;;;;;;6222528;28;20084;-73
2023/09/23 04:30:55;;;;;;;2.03;0.60;;;17.20;67.10;;;;;;6238858;28;20334;-76
2023/09/23 04:33:55;;;;;;;3.20;0.80;;;17.20;67.00;;;;;;6239939;28;20162;-74
2023/09/23 04:36:56;;;;;;;0.90;0.70;;;17.20;67.10;;;;;;6238622;28;20493;-73
2023/09/23 04:39:57;;;;;;;2.00;0.80;;;17.30;67.20;;;;;;6221571;28;20131;-74
2023/09/23 04:42:58;;;;;;;2.88;0.75;;;17.20;67.10;;;;;;6221808;28;20456;-74
2023/09/23 04:45:59;;;;;;;4.72;0.88;;;17.30;67.30;;;;;;6239533;28;20398;-74
2023/09/23 04:49:00;;;;;;;6.22;0.90;;;17.30;67.20;;;;;;6239544;28;20044;-73
2023/09/23 04:52:02;;;;;;;4.10;0.82;;;17.30;67.30;;;;;;6239232;28;20063;-74
2023/09/23 04:55:03;;;;;;;4.68;0.65;;;17.20;67.30;;;;;;6239198;28;20037;-74
2023/09/23 04:58:08;;;;;;;2.88;0.90;;;17.30;67.40;;;;;;6239369;28;20033;-74
2023/09/23 05:01:13;;;;;;;2.65;0.60;;;17.30;67.30;;;;;;6239020;28;20105;-75
2023/09/23 05:04:14;;;;;;;1.35;0.60;;;17.20;67.30;;;;;;6237246;28;20127;-73
2023/09/23 05:07:15;;;;;;;4.40;0.60;;;17.20;67.30;;;;;;6238904;28;20095;-74
2023/09/23 05:10:17;;;;;;;0.77;0.52;;;17.20;67.10;;;;;;6237096;28;20089;-73
2023/09/23 05:13:17;;;;;;;1.65;0.30;;;17.20;67.00;;;;;;6239088;28;20040;-75
2023/09/23 05:16:18;;;;;;;5.00;0.60;;;17.20;67.00;;;;;;6238731;28;20029;-74
2023/09/23 05:19:19;;;;;;;1.02;0.70;;;17.20;67.00;;;;;;6238800;28;20033;-72
2023/09/23 05:22:20;;;;;;;1.00;0.47;;;17.20;66.80;;;;;;6236512;28;20052;-73
2023/09/23 05:25:24;;;;;;;4.35;0.73;;;17.20;66.80;;;;;;6238618;28;20137;-73
2023/09/23 05:28:27;;;;;;;0.82;0.80;;;17.20;67.00;;;;;;6220149;28;20041;-74
2023/09/23 05:31:28;;;;;;;3.53;0.80;;;17.30;67.00;;;;;;6236925;28;20081;-74
2023/09/23 05:34:29;;;;;;;5.82;1.30;;;17.30;66.80;;;;;;6238802;28;20034;-73
2023/09/23 05:37:30;;;;;;;1.83;1.42;;;17.30;66.70;;;;;;6219780;28;20033;-73
2023/09/23 05:40:36;;;;;;;5.43;1.60;;;17.30;66.80;;;;;;6237908;28;20033;-75
2023/09/23 05:43:37;;;;;;;1.95;1.40;;;17.20;67.60;;;;;;6203541;28;20040;-74
2023/09/23 05:46:38;;;;;;;2.13;1.33;;;17.30;67.00;;;;;;6199879;28;20782;-74
2023/09/23 05:49:38;;;;;;;5.97;1.15;;;17.20;67.00;;;;;;6211221;28;20123;-74
2023/09/23 05:52:39;;;;;;;0.77;0.63;;;17.20;67.00;;;;;;6213135;28;20037;-73
2023/09/23 05:55:40;;;;;;;2.58;0.73;;;17.10;66.80;;;;;;6213056;28;20351;-74
2023/09/23 05:58:41;;;;;;;0.55;0.50;;;17.20;66.80;;;;;;6212856;28;20032;-73
2023/09/23 06:01:42;;;;;;;0.52;0.40;;;17.20;66.90;;;;;;6212822;28;20042;-73
2023/09/23 06:04:46;;;;;;;1.10;0.45;;;17.20;66.80;;;;;;6212913;28;20104;-71
2023/09/23 06:07:47;;;;;;;1.90;0.50;;;17.20;66.60;;;;;;6211056;28;20034;-72
2023/09/23 06:10:47;;;;;;;2.78;0.55;;;17.10;66.50;;;;;;6217681;28;20100;-73
2023/09/23 06:13:48;;;;;;;3.85;0.52;;;17.10;66.70;;;;;;6237206;28;20049;-74
2023/09/23 06:16:49;;;;;;;1.20;0.55;;;17.00;66.80;;;;;;6237287;28;20067;-73
2023/09/23 06:19:51;;;;;;;3.05;0.90;;;17.00;66.90;;;;;;6237203;28;20333;-74
2023/09/23 06:22:52;;;;;;;1.75;0.70;;;17.00;66.80;;;;;;6237225;28;20033;-74
2023/09/23 06:25:59;;;;;;;5.55;0.60;;;17.00;66.80;;;;;;6236558;28;20766;-73
2023/09/23 06:29:02;;;;;;;0.90;0.60;;;16.90;66.70;;;;;;6236697;28;20108;-73
2023/09/23 06:32:04;;;;;;;6.45;0.75;;;16.90;66.80;;;;;;6219045;28;20458;-73
2023/09/23 06:35:05;;;;;;;0.50;0.45;;;16.90;67.00;;;;;;6236880;28;20037;-74
2023/09/23 06:38:06;;;;;;;3.35;1.45;;;16.90;67.20;;;;;;6219374;28;20128;-74
2023/09/23 06:41:06;;;;;;;1.45;0.60;;;16.90;67.20;;;;;;6236766;28;20021;-74
2023/09/23 06:44:07;;;;;;;1.05;0.70;;;16.90;67.10;;;;;;6212542;28;20115;-74
2023/09/23 06:47:08;;;;;;;1.42;0.77;;;17.00;67.10;;;;;;6221427;28;20087;-73
2023/09/23 06:50:10;;;;;;;1.30;0.70;;;17.10;67.20;;;;;;6236527;28;20045;-74
2023/09/23 06:53:10;;;;;;;4.38;1.13;;;17.20;67.00;;;;;;6235025;28;20121;-73
2023/09/23 06:56:11;;;;;;;5.05;0.90;;;17.40;66.80;;;;;;6234956;28;20098;-73
2023/09/23 06:59:12;;;;;;;3.97;1.02;;;17.60;66.40;;;;;;6236751;28;20034;-73
2023/09/23 07:02:13;;;;;;;4.85;0.90;;;17.70;65.70;;;;;;6218757;28;20383;-73
2023/09/23 07:05:14;;;;;;;1.75;0.90;;;17.80;65.20;;;;;;6234795;28;20037;-73
2023/09/23 07:08:15;;;;;;;2.15;0.77;;;18.00;64.80;;;;;;6236556;28;20086;-74
2023/09/23 07:11:18;;;;;;;1.38;0.75;;;18.10;64.80;;;;;;6226493;28;20029;-74
2023/09/23 07:14:18;;;;;;;4.32;2.00;;;18.20;65.40;;;;;;6193949;28;20514;-73
2023/09/23 07:17:19;;;;;;;5.07;1.63;;;18.30;64.20;;;;;;6218766;28;20109;-75
2023/09/23 07:20:20;;;;;;;3.10;1.38;;;18.50;63.70;;;;;;6212017;28;20099;-75
2023/09/23 07:23:21;;;;;;;2.72;1.65;;;18.60;63.40;;;;;;6212013;28;20038;-72
2023/09/23 07:26:22;;;;;;;1.63;0.88;;;18.70;63.20;;;;;;6211582;28;20473;-74
2023/09/23 07:29:23;;;;;;;3.00;1.08;;;18.90;62.60;;;;;;6212037;28;20344;-73
2023/09/23 07:32:23;;;;;;;1.60;0.90;;;19.10;61.80;;;;;;6211927;28;20217;-74
2023/09/23 07:35:34;;;;;;;1.98;1.10;;;19.30;61.30;;;;;;6211816;28;20034;-74
2023/09/23 07:38:34;;;;;;;5.68;1.08;;;19.40;60.30;;;;;;6210681;28;20061;-75
2023/09/23 07:41:35;;;;;;;6.93;0.80;;;19.60;59.90;;;;;;6211088;28;20350;-74
2023/09/23 07:44:36;;;;;;;1.63;0.85;;;19.80;58.90;;;;;;6193049;28;20034;-73
2023/09/23 07:47:37;;;;;;;0.80;0.40;;;19.90;58.50;;;;;;6235771;28;20136;-74
2023/09/23 07:50:37;;;;;;;0.80;0.50;;;20.00;57.30;;;;;;6240211;28;20033;-73
2023/09/23 07:53:38;;;;;;;2.05;0.57;;;20.00;56.90;;;;;;6240620;28;20037;-75
2023/09/23 07:56:39;;;;;;;3.00;0.77;;;20.10;57.20;;;;;;6238995;28;20457;-75
2023/09/23 07:59:41;;;;;;;5.43;1.08;;;20.30;57.10;;;;;;6240620;28;20085;-74
2023/09/23 08:02:42;;;;;;;2.08;1.20;;;20.50;57.00;;;;;;6240777;28;20186;-75
2023/09/23 08:05:43;;;;;;;5.32;0.63;;;20.60;56.50;;;;;;6240407;28;20021;-73
2023/09/23 08:08:44;;;;;;;1.48;0.82;;;20.80;56.40;;;;;;6240134;28;20439;-74
2023/09/23 08:11:45;;;;;;;1.30;0.80;;;20.90;55.90;;;;;;6240109;28;20505;-73
2023/09/23 08:14:45;;;;;;;1.45;0.57;;;20.90;55.70;;;;;;6222484;28;20029;-75
2023/09/23 08:17:46;;;;;;;11.68;4.10;;;20.80;55.70;;;;;;6239449;28;20037;-73
2023/09/23 08:20:47;;;;;;;2.90;0.60;;;20.80;55.50;;;;;;6221882;28;20441;-73
2023/09/23 08:23:48;;;;;;;2.30;0.60;;;20.80;55.00;;;;;;6240129;28;20080;-74
2023/09/23 08:26:49;;;;;;;1.10;0.50;;;20.70;54.40;;;;;;6240540;28;20033;-75
2023/09/23 08:29:50;;;;;;;1.15;0.30;;;20.60;54.20;;;;;;6240318;28;20191;-74
2023/09/23 08:32:51;;;;;;;1.15;0.45;;;20.50;54.00;;;;;;6240252;28;20045;-75
2023/09/23 08:35:52;;;;;;;1.08;0.52;;;20.40;53.90;;;;;;6239295;28;20477;-74
2023/09/23 08:38:53;;;;;;;1.08;0.20;;;20.30;54.10;;;;;;6239537;28;20110;-73
2023/09/23 08:41:57;;;;;;;3.78;0.95;;;20.30;54.90;;;;;;6239083;28;20037;-73
2023/09/23 08:44:58;;;;;;;1.23;0.55;;;20.30;54.30;;;;;;6239356;28;20466;-73
2023/09/23 08:47:59;;;;;;;6.65;0.63;;;20.30;54.30;;;;;;6229598;28;20088;-73
2023/09/23 08:51:02;;;;;;;3.80;0.60;;;20.30;54.20;;;;;;6215104;28;20819;-74
2023/09/23 08:54:03;;;;;;;1.00;0.50;;;20.40;54.40;;;;;;6215415;28;20142;-74
2023/09/23 08:57:04;;;;;;;0.82;0.60;;;20.30;54.30;;;;;;6214158;28;20129;-74
2023/09/23 09:00:10;;;;;;;1.10;0.60;;;20.40;54.50;;;;;;6214636;28;20048;-73
2023/09/23 09:03:11;;;;;;;1.33;0.88;;;20.40;54.50;;;;;;6215652;28;20037;-75
2023/09/23 09:06:19;;;;;;;1.48;0.60;;;20.60;54.50;;;;;;6214436;28;20081;-74
2023/09/23 09:09:20;;;;;;;3.15;0.93;;;20.70;54.30;;;;;;6227846;28;20698;-75
2023/09/23 09:12:21;;;;;;;0.85;0.70;;;20.90;53.80;;;;;;6216054;28;20764;-74
2023/09/23 09:15:22;;;;;;;5.30;0.57;;;21.10;53.60;;;;;;6213927;28;20085;-74
2023/09/23 09:18:23;;;;;;;3.33;0.90;;;21.40;53.00;;;;;;6213993;28;20041;-75
2023/09/23 09:21:26;;;;;;;2.38;0.70;;;21.50;52.60;;;;;;6213721;28;20059;-74
2023/09/23 09:24:27;;;;;;;2.78;0.80;;;21.70;52.40;;;;;;6195766;28;20438;-75
2023/09/23 09:27:28;;;;;;;1.23;0.88;;;21.90;51.80;;;;;;6213974;28;20071;-75
2023/09/23 09:30:30;;;;;;;1.27;0.60;;;22.10;52.10;;;;;;6216781;28;20068;-74
2023/09/23 09:33:36;;;;;;;1.92;0.50;;;22.30;51.20;;;;;;6238027;28;20037;-74
2023/09/23 09:36:40;;;;;;;1.27;0.52;;;22.30;50.80;;;;;;6237677;28;20045;-75
2023/09/23 09:39:57;;;;;;;1.13;0.60;;;22.00;50.40;;;;;;6237723;28;20048;-73
2023/09/23 09:42:59;;;;;;;1.52;0.85;;;21.90;50.50;;;;;;6237773;28;20521;-74
2023/09/23 09:46:08;;;;;;;1.40;0.60;;;21.80;50.30;;;;;;6228823;28;20026;-74
2023/09/23 09:49:09;;;;;;;0.77;0.43;;;21.80;50.30;;;;;;6213480;28;20112;-73
2023/09/23 09:52:13;;;;;;;0.75;0.52;;;21.50;50.00;;;;;;6211553;28;20052;-75
2023/09/23 09:55:18;;;;;;;4.38;0.60;;;21.40;50.30;;;;;;6214034;28;20037;-75
2023/09/23 09:58:22;;;;;;;0.60;0.50;;;21.30;50.50;;;;;;6213509;28;20489;-74
2023/09/23 10:01:23;;;;;;;1.30;0.47;;;21.30;50.50;;;;;;6213845;28;20034;-74
2023/09/23 10:04:32;;;;;;;6.80;1.13;;;21.40;50.40;;;;;;6235817;28;20026;-73
2023/09/23 10:07:55;;;;;;;2.67;0.80;;;21.50;50.30;;;;;;6238053;28;20491;-75
2023/09/23 10:11:03;;;;;;;2.20;0.65;;;21.60;50.00;;;;;;6236683;28;20364;-74
2023/09/23 10:14:16;;;;;;;1.50;0.65;;;21.70;49.90;;;;;;6237350;28;20033;-73
2023/09/23 10:17:29;;;;;;;0.85;0.60;;;21.70;49.90;;;;;;6236939;28;20106;-73
2023/09/23 10:20:33;;;;;;;0.88;0.60;;;21.80;49.60;;;;;;6237295;28;20458;-73
2023/09/23 10:23:39;;;;;;;4.35;0.60;;;21.90;49.20;;;;;;6235568;28;20045;-75
2023/09/23 10:26:43;;;;;;;1.80;0.68;;;21.90;48.80;;;;;;6237006;28;20120;-74
2023/09/23 10:29:47;;;;;;;6.13;0.80;;;21.90;48.60;;;;;;6236898;28;20086;-74
2023/09/23 10:32:49;;;;;;;4.18;0.98;;;22.10;48.40;;;;;;6235801;28;20128;-75
2023/09/23 10:35:50;;;;;;;1.58;0.60;;;22.10;48.20;;;;;;6237275;28;20044;-74
2023/09/23 10:38:51;;;;;;;0.77;0.50;;;22.10;48.00;;;;;;6237216;28;20345;-75
2023/09/23 10:41:54;;;;;;;3.53;0.70;;;22.20;47.80;;;;;;6236855;28;20026;-74
2023/09/23 10:45:01;;;;;;;0.82;0.68;;;22.30;47.50;;;;;;6237093;28;20037;-74
2023/09/23 10:48:02;;;;;;;1.67;0.80;;;22.40;46.90;;;;;;6212614;28;20717;-75
2023/09/23 10:51:05;;;;;;;1.83;0.50;;;22.60;46.40;;;;;;6210868;28;20045;-75
2023/09/23 10:54:06;;;;;;;2.95;0.70;;;22.90;45.70;;;;;;6210945;28;20036;-75
2023/09/23 10:57:07;;;;;;;1.63;0.52;;;23.20;44.90;;;;;;6212667;28;20734;-75
2023/09/23 11:00:20;;;;;;;2.78;0.52;;;23.50;44.20;;;;;;6215494;28;20502;-76
2023/09/23 11:03:21;;;;;;;1.40;0.50;;;23.80;43.30;;;;;;6229118;28;20120;-76
2023/09/23 11:06:25;;;;;;;1.25;0.80;;;24.20;42.70;;;;;;6236698;28;20037;-75
2023/09/23 11:09:26;;;;;;;0.82;0.50;;;24.50;41.90;;;;;;6236738;28;20068;-75
2023/09/23 11:12:35;;;;;;;2.58;0.80;;;24.70;41.90;;;;;;6236825;28;20431;-76
2023/09/23 11:15:39;;;;;;;7.63;0.80;;;24.90;40.90;;;;;;6237504;28;20041;-74
2023/09/23 11:18:40;;;;;;;1.10;0.60;;;25.00;40.60;;;;;;6219374;28;20115;-75
2023/09/23 11:21:46;;;;;;;0.60;0.50;;;24.80;40.10;;;;;;6240726;28;20037;-78
2023/09/23 11:24:49;;;;;;;1.83;0.93;;;24.80;39.80;;;;;;6242347;28;20039;-77
2023/09/23 11:27:51;;;;;;;1.05;0.80;;;24.70;39.40;;;;;;6240045;28;20125;-77
2023/09/23 11:30:53;;;;;;;2.38;0.55;;;24.50;39.40;;;;;;6223340;28;20033;-77
2023/09/23 11:33:54;;;;;;;1.80;0.70;;;24.20;39.50;;;;;;6242072;28;20121;-77
2023/09/23 11:36:55;;;;;;;2.30;0.68;;;23.90;39.70;;;;;;6240947;28;20137;-75
2023/09/23 11:39:56;;;;;;;4.28;1.00;;;23.50;40.30;;;;;;6241240;28;20362;-77
2023/09/23 11:42:57;;;;;;;1.33;0.65;;;23.30;40.40;;;;;;6240739;28;20036;-76
2023/09/23 11:45:57;;;;;;;3.28;0.40;;;23.60;40.80;;;;;;6223643;28;20265;-77
2023/09/23 11:48:59;;;;;;;3.75;0.70;;;24.10;40.10;;;;;;6240108;28;20071;-75
2023/09/23 11:52:00;;;;;;;1.83;1.27;;;24.60;38.60;;;;;;6240056;28;20077;-77
2023/09/23 11:55:01;;;;;;;1.88;0.68;;;24.70;37.70;;;;;;6239133;28;20091;-76
2023/09/23 11:58:02;;;;;;;2.60;0.60;;;24.60;37.50;;;;;;6240553;28;20153;-77
2023/09/23 12:01:04;;;;;;;7.82;0.63;;;24.70;37.30;;;;;;6240521;28;20110;-77
2023/09/23 12:04:05;;;;;;;2.28;0.70;;;24.80;37.20;;;;;;6240461;28;20037;-76
2023/09/23 12:07:06;;;;;;;5.20;0.63;;;24.70;37.30;;;;;;6239532;28;20056;-76
2023/09/23 12:10:07;;;;;;;0.52;0.47;;;24.60;37.10;;;;;;6240500;28;20111;-76
2023/09/23 12:13:08;;;;;;;1.45;0.80;;;24.30;37.10;;;;;;6214853;28;20098;-75
2023/09/23 12:16:12;;;;;;;0.47;0.40;;;24.10;37.10;;;;;;6216171;28;20061;-75
2023/09/23 12:19:16;;;;;;;4.68;0.40;;;24.00;37.60;;;;;;6216005;28;20058;-77
2023/09/23 12:22:17;;;;;;;1.30;0.60;;;23.80;37.90;;;;;;6197585;28;20474;-77
2023/09/23 12:25:17;;;;;;;1.13;0.70;;;23.70;38.10;;;;;;6216130;28;20165;-76
2023/09/23 12:28:18;;;;;;;3.17;0.60;;;24.00;37.60;;;;;;6214730;28;20669;-75
2023/09/23 12:31:19;;;;;;;0.40;0.40;;;24.40;37.40;;;;;;6214993;28;20038;-74
2023/09/23 12:34:20;;;;;;;3.60;0.40;;;24.80;37.00;;;;;;6214614;28;20053;-75
2023/09/23 12:37:26;;;;;;;4.20;0.60;;;25.40;35.80;;;;;;6214995;28;20417;-75
2023/09/23 12:40:32;;;;;;;1.48;0.38;;;25.40;35.20;;;;;;6215592;28;20312;-75
2023/09/23 12:43:32;;;;;;;2.90;0.50;;;25.10;35.30;;;;;;6215862;28;20068;-75
2023/09/23 12:46:33;;;;;;;1.05;0.32;;;24.80;35.50;;;;;;6221826;28;20038;-76
2023/09/23 12:49:34;;;;;;;0.77;0.40;;;24.90;35.50;;;;;;6180815;28;20034;-76
2023/09/23 12:52:37;;;;;;;0.43;0.43;;;25.30;34.90;;;;;;6218029;28;20033;-76
2023/09/23 12:55:37;;;;;;;5.15;0.63;;;25.60;34.30;;;;;;6238207;28;20037;-76
2023/09/23 12:58:39;;;;;;;0.70;0.50;;;25.70;34.30;;;;;;6239929;28;20137;-77
2023/09/23 13:01:39;;;;;;;1.00;0.40;;;26.20;33.50;;;;;;6239375;28;20539;-76
2023/09/23 13:04:40;;;;;;;0.43;0.38;;;26.30;33.10;;;;;;6239435;28;20025;-73
2023/09/23 13:07:42;;;;;;;0.93;0.45;;;26.40;33.30;;;;;;6239236;28;20083;-73
2023/09/23 13:10:43;;;;;;;1.23;0.50;;;26.60;33.00;;;;;;6239308;28;20402;-73
2023/09/23 13:13:43;;;;;;;2.00;0.52;;;27.20;31.80;;;;;;6221052;28;20049;-75
2023/09/23 13:16:44;;;;;;;0.40;0.40;;;27.50;31.50;;;;;;6238715;28;20045;-74
2023/09/23 13:19:45;;;;;;;1.10;0.60;;;28.20;30.70;;;;;;6238265;28;20080;-74
2023/09/23 13:22:46;;;;;;;0.55;0.50;;;28.70;29.90;;;;;;6236754;28;20037;-74
2023/09/23 13:25:48;;;;;;;1.00;0.60;;;28.40;30.00;;;;;;6237899;28;20029;-75
2023/09/23 13:28:48;;;;;;;2.03;0.65;;;28.00;30.50;;;;;;6236831;28;20037;-74
2023/09/23 13:31:49;;;;;;;1.55;0.65;;;27.20;31.30;;;;;;6238182;28;20121;-77
2023/09/23 13:34:50;;;;;;;1.13;0.52;;;26.50;32.30;;;;;;6237083;28;20048;-75
2023/09/23 13:37:51;;;;;;;7.90;0.73;;;25.90;32.90;;;;;;6220688;28;20037;-74
2023/09/23 13:40:52;;;;;;;0.50;0.50;;;25.50;33.60;;;;;;6238446;28;20374;-73
2023/09/23 13:43:53;;;;;;;0.57;0.50;;;25.20;34.10;;;;;;6238459;28;20418;-74
2023/09/23 13:46:54;;;;;;;4.85;0.77;;;24.90;34.40;;;;;;6227463;28;20104;-76
2023/09/23 13:49:54;;;;;;;1.25;0.70;;;24.60;34.80;;;;;;6203575;28;20022;-74
2023/09/23 13:52:55;;;;;;;3.25;0.73;;;24.40;35.40;;;;;;6187467;28;20504;-76
2023/09/23 13:55:56;;;;;;;2.95;1.00;;;24.20;35.70;;;;;;6212992;28;20034;-75
2023/09/23 13:58:57;;;;;;;4.50;0.70;;;24.20;35.80;;;;;;6213365;28;20036;-74
2023/09/23 14:01:58;;;;;;;1.63;0.60;;;24.00;35.70;;;;;;6213391;28;20148;-74
2023/09/23 14:04:58;;;;;;;4.30;0.98;;;24.10;35.90;;;;;;6211859;28;20105;-74
2023/09/23 14:07:59;;;;;;;1.05;0.60;;;24.10;35.90;;;;;;6211631;28;20092;-74
2023/09/23 14:11:04;;;;;;;0.77;0.63;;;24.20;35.80;;;;;;6218163;28;20029;-76
2023/09/23 14:14:05;;;;;;;1.13;0.50;;;24.20;35.80;;;;;;6215295;28;20033;-73
2023/09/23 14:17:06;;;;;;;0.52;0.50;;;24.20;36.00;;;;;;6213172;28;20390;-74
2023/09/23 14:20:12;;;;;;;0.73;0.40;;;24.20;35.80;;;;;;6212925;28;20030;-76
2023/09/23 14:23:13;;;;;;;0.70;0.40;;;24.30;35.90;;;;;;6212966;28;20030;-74
2023/09/23 14:26:14;;;;;;;1.23;0.65;;;24.30;36.10;;;;;;6212634;28;20030;-74
2023/09/23 14:29:16;;;;;;;0.80;0.45;;;24.30;36.00;;;;;;6195177;28;20064;-74
2023/09/23 14:32:16;;;;;;;2.15;0.60;;;24.30;36.00;;;;;;6211081;28;20107;-73
2023/09/23 14:35:20;;;;;;;0.60;0.40;;;24.30;35.80;;;;;;6213221;28;20025;-74
2023/09/23 14:38:20;;;;;;;1.58;0.57;;;24.20;35.90;;;;;;6212835;28;20114;-73
2023/09/23 14:41:21;;;;;;;0.75;0.50;;;24.10;36.10;;;;;;6212947;28;20029;-75
2023/09/23 14:44:22;;;;;;;5.63;0.73;;;24.10;36.30;;;;;;6214734;28;20026;-75
2023/09/23 14:47:23;;;;;;;0.40;0.40;;;23.90;36.30;;;;;;6236497;28;20060;-74
2023/09/23 14:50:24;;;;;;;0.77;0.57;;;23.80;36.20;;;;;;6236474;28;20060;-75
2023/09/23 14:53:25;;;;;;;0.73;0.52;;;23.70;36.20;;;;;;6236648;28;20033;-74
2023/09/23 14:56:25;;;;;;;3.75;0.75;;;23.70;36.40;;;;;;6236212;28;20072;-74
2023/09/23 14:59:26;;;;;;;1.55;0.65;;;23.60;36.60;;;;;;6234367;28;20037;-74
2023/09/23 15:02:27;;;;;;;0.50;0.50;;;23.60;36.70;;;;;;6236695;28;20040;-74
2023/09/23 15:05:28;;;;;;;1.73;0.70;;;23.80;37.00;;;;;;6236318;28;20073;-75
2023/09/23 15:08:29;;;;;;;1.02;0.40;;;23.80;37.20;;;;;;6236797;28;20037;-75
2023/09/23 15:11:32;;;;;;;2.72;0.50;;;23.80;37.40;;;;;;6236357;28;20205;-73
2023/09/23 15:14:33;;;;;;;0.40;0.40;;;23.80;37.50;;;;;;6218519;28;20029;-75
2023/09/23 15:17:38;;;;;;;1.95;0.50;;;23.80;37.40;;;;;;6236596;28;20037;-74
2023/09/23 15:20:39;;;;;;;0.80;0.40;;;23.80;37.50;;;;;;6236037;28;20042;-74
2023/09/23 15:23:39;;;;;;;0.45;0.45;;;23.70;37.50;;;;;;6236434;28;20034;-73
2023/09/23 15:26:43;;;;;;;0.40;0.40;;;23.60;37.50;;;;;;6234167;28;20064;-75
2023/09/23 15:29:47;;;;;;;4.32;0.50;;;23.50;37.60;;;;;;6235864;28;20057;-74
2023/09/23 15:32:49;;;;;;;3.95;0.80;;;23.50;37.70;;;;;;6235742;28;20513;-75
2023/09/23 15:35:52;;;;;;;7.13;0.50;;;23.40;37.90;;;;;;6234381;28;20057;-74
2023/09/23 15:38:56;;;;;;;1.85;0.70;;;23.30;38.10;;;;;;6236155;28;20037;-73
2023/09/23 15:41:56;;;;;;;1.38;0.55;;;23.30;38.30;;;;;;6234139;28;20132;-73
2023/09/23 15:44:57;;;;;;;1.25;0.60;;;23.20;38.30;;;;;;6235787;28;20043;-74
2023/09/23 15:47:58;;;;;;;2.50;0.52;;;23.20;38.60;;;;;;6212183;28;20042;-74